Teresina, Brazil
Current Conditions -  °F | °C
As of 5:00 PM on Monday 20 Oct 2014 (Local Time) from SBTE Reporting Station
Scattered Clouds Scattered Clouds  
Wind Chill: 99°   Ceiling: Unl
Heat Index: 100°   Visibility: 6mi
Dew Point: 63°   Wind: 5mph
Humidity: 30%   Direction: 300°WNW
Pressure: 29.71"   Gusts: NA
Location:  5.1°S, 42.8°W
Report Text: SBTE 202000Z 30004KT 9999 FEW033 SCT100 37/17 Q1006
Loading
Personal Weather Stations






























Interactive Weather Map
Tropical Storm Tracking
New forecast layout! Learn more

10-Day Weather Forecast

Advertisements
Track Severe Weather on mobile